createdAt,value
2023-03-26T00:01:52.668Z,32.57
2023-03-26T00:04:21.931Z,32.40
2023-03-26T00:06:50.232Z,32.77
2023-03-26T00:09:18.893Z,33.10
2023-03-26T00:11:47.238Z,35.37
2023-03-26T00:14:17.541Z,33.30
2023-03-26T00:16:47.427Z,33.23
2023-03-26T00:19:15.555Z,31.60
2023-03-26T00:21:44.552Z,33.63
2023-03-26T00:24:16.074Z,31.83
2023-03-26T00:26:44.731Z,31.40
2023-03-26T00:29:13.856Z,32.87
2023-03-26T00:31:45.946Z,33.90
2023-03-26T00:34:15.594Z,31.70
2023-03-26T00:36:46.825Z,33.10
2023-03-26T00:39:15.208Z,32.87
2023-03-26T00:41:43.296Z,31.57
2023-03-26T00:44:11.725Z,31.97
2023-03-26T00:46:39.480Z,30.90
2023-03-26T00:49:10.823Z,31.23
2023-03-26T00:51:39.276Z,31.43
2023-03-26T00:54:09.017Z,31.03
2023-03-26T00:56:36.857Z,30.27
2023-03-26T00:59:04.814Z,30.70
2023-03-26T01:01:32.527Z,30.57
2023-03-26T01:04:24.122Z,30.63
2023-03-26T01:06:52.246Z,32.63
2023-03-26T01:09:25.830Z,30.60
2023-03-26T01:11:53.741Z,31.60
2023-03-26T01:14:24.095Z,31.03
2023-03-26T01:16:54.806Z,31.83
2023-03-26T01:19:30.353Z,31.00
2023-03-26T01:21:59.091Z,30.60
2023-03-26T01:24:28.430Z,28.90
2023-03-26T01:27:17.673Z,29.27
2023-03-26T01:29:52.600Z,29.20
2023-03-26T01:32:30.872Z,29.47
2023-03-26T01:35:12.415Z,31.60
2023-03-26T01:37:52.524Z,29.57
2023-03-26T01:40:27.754Z,30.57
2023-03-26T01:42:59.914Z,30.77
2023-03-26T01:45:31.140Z,29.93
2023-03-26T01:47:59.356Z,30.97
2023-03-26T01:50:27.311Z,29.57
2023-03-26T01:52:55.192Z,29.40
2023-03-26T01:55:27.986Z,30.00
2023-03-26T01:58:04.019Z,31.27
2023-03-26T02:00:34.626Z,30.27
2023-03-26T02:03:17.669Z,29.30
2023-03-26T02:05:54.292Z,29.87
2023-03-26T02:08:25.388Z,28.67
2023-03-26T02:10:58.532Z,30.23
2023-03-26T02:13:27.137Z,30.23
2023-03-26T02:16:00.249Z,28.67
2023-03-26T02:18:36.082Z,29.07
2023-03-26T02:21:05.467Z,31.60
2023-03-26T02:23:35.694Z,29.60
2023-03-26T02:26:07.456Z,29.07
2023-03-26T02:28:35.760Z,29.80
2023-03-26T02:31:03.509Z,29.70
2023-03-26T02:33:32.017Z,27.93
2023-03-26T02:36:02.084Z,28.00
2023-03-26T02:38:30.432Z,28.63
2023-03-26T02:40:58.006Z,28.67
2023-03-26T02:43:26.985Z,29.80
2023-03-26T02:45:55.057Z,30.13
2023-03-26T02:48:23.049Z,30.67
2023-03-26T02:50:54.184Z,30.63
2023-03-26T02:53:24.199Z,32.57
2023-03-26T02:55:52.273Z,32.17
2023-03-26T02:58:20.198Z,31.47
2023-03-26T03:00:50.724Z,33.00
2023-03-26T03:03:18.478Z,30.80
2023-03-26T03:05:46.084Z,33.80
2023-03-26T03:08:13.686Z,33.60
2023-03-26T03:10:41.312Z,32.80
2023-03-26T03:13:08.984Z,34.13
2023-03-26T03:15:36.700Z,35.60
2023-03-26T03:18:06.077Z,37.43
2023-03-26T03:20:35.344Z,37.67
2023-03-26T03:23:03.184Z,35.83
2023-03-26T03:25:32.506Z,36.77
2023-03-26T03:28:00.248Z,35.57
2023-03-26T03:30:27.950Z,35.97
2023-03-26T03:32:58.204Z,35.27
2023-03-26T03:35:27.868Z,34.57
2023-03-26T03:37:55.608Z,34.80
2023-03-26T03:40:23.385Z,33.57
2023-03-26T03:42:51.648Z,34.87
2023-03-26T03:45:19.586Z,35.67
2023-03-26T03:47:47.283Z,35.60
2023-03-26T03:50:15.022Z,35.83
2023-03-26T03:52:44.363Z,34.83
2023-03-26T03:55:13.951Z,35.40
2023-03-26T03:57:41.816Z,34.77
2023-03-26T04:00:11.848Z,35.93
2023-03-26T04:02:42.893Z,34.10
2023-03-26T04:05:11.650Z,35.67
2023-03-26T04:07:40.006Z,36.57
2023-03-26T04:10:10.848Z,34.97
2023-03-26T04:12:38.552Z,34.50
2023-03-26T04:15:07.315Z,36.60
2023-03-26T04:17:42.781Z,34.50
2023-03-26T04:20:14.715Z,34.77
2023-03-26T04:22:43.400Z,36.37
2023-03-26T04:25:15.419Z,34.13
2023-03-26T04:27:44.026Z,33.97
2023-03-26T04:30:16.542Z,34.00
2023-03-26T04:32:44.709Z,35.35
2023-03-26T04:35:14.619Z,34.27
2023-03-26T04:37:44.377Z,32.93
2023-03-26T04:40:16.429Z,32.53
2023-03-26T04:42:46.433Z,35.10
2023-03-26T04:45:14.922Z,35.13
2023-03-26T04:47:42.972Z,35.10
2023-03-26T04:50:12.777Z,36.07
2023-03-26T04:52:42.618Z,36.87
2023-03-26T04:55:24.574Z,35.97
2023-03-26T04:57:56.718Z,33.27
2023-03-26T05:00:25.377Z,35.00
2023-03-26T05:02:55.834Z,33.13
2023-03-26T05:05:24.003Z,33.23
2023-03-26T05:07:51.649Z,32.90
2023-03-26T05:10:21.778Z,33.70
2023-03-26T05:12:50.130Z,32.03
2023-03-26T05:15:17.835Z,33.33
2023-03-26T05:17:46.455Z,34.07
2023-03-26T05:20:20.906Z,35.13
2023-03-26T05:22:49.264Z,33.37
2023-03-26T05:25:17.150Z,32.90
2023-03-26T05:27:46.477Z,34.30
2023-03-26T05:30:16.690Z,33.07
2023-03-26T05:32:44.697Z,32.73
2023-03-26T05:35:12.694Z,30.50
2023-03-26T05:37:41.218Z,31.13
2023-03-26T05:40:12.264Z,31.50
2023-03-26T05:42:41.022Z,29.13
2023-03-26T05:45:12.792Z,30.83
2023-03-26T05:47:40.564Z,32.80
2023-03-26T05:50:09.825Z,29.80
2023-03-26T05:52:37.792Z,29.87
2023-03-26T05:55:06.550Z,31.17
2023-03-26T05:57:35.361Z,30.50
2023-03-26T06:00:04.223Z,29.80
2023-03-26T06:02:33.703Z,30.47
2023-03-26T06:05:02.823Z,28.03
2023-03-26T06:07:31.187Z,28.30
2023-03-26T06:09:58.835Z,29.00
2023-03-26T06:12:26.486Z,28.80
2023-03-26T06:14:54.231Z,25.30
2023-03-26T06:17:22.112Z,24.77
2023-03-26T06:19:51.410Z,25.47
2023-03-26T06:22:19.097Z,20.23
2023-03-26T06:24:46.779Z,24.77
2023-03-26T06:27:14.516Z,22.83
2023-03-26T06:29:42.161Z,19.53
2023-03-26T06:32:19.041Z,23.70
2023-03-26T06:34:47.542Z,18.67
2023-03-26T06:37:16.910Z,25.20
2023-03-26T06:39:44.599Z,18.10
2023-03-26T06:42:12.323Z,16.70
2023-03-26T06:44:40.294Z,25.70
2023-03-26T06:47:07.908Z,23.00
2023-03-26T06:49:35.989Z,19.10
2023-03-26T06:52:03.671Z,19.30
2023-03-26T06:54:33.114Z,28.13
2023-03-26T06:57:00.816Z,17.23
2023-03-26T06:59:28.647Z,15.47
2023-03-26T07:01:56.305Z,13.70
2023-03-26T07:04:23.960Z,14.47
2023-03-26T07:06:51.728Z,17.23
2023-03-26T07:09:19.410Z,18.13
2023-03-26T07:11:48.661Z,12.67
2023-03-26T07:14:16.535Z,15.30
2023-03-26T07:16:44.116Z,15.07
2023-03-26T07:19:11.753Z,16.37
2023-03-26T07:21:39.887Z,17.50
2023-03-26T07:24:11.289Z,22.63
2023-03-26T07:26:52.877Z,21.77
2023-03-26T07:29:30.015Z,18.33
2023-03-26T07:32:06.966Z,13.70
2023-03-26T07:34:45.219Z,21.30
2023-03-26T07:37:22.868Z,12.67
2023-03-26T07:39:55.839Z,25.40
2023-03-26T07:42:39.119Z,20.07
2023-03-26T07:45:18.200Z,19.23
2023-03-26T07:47:47.645Z,15.50
2023-03-26T07:50:18.385Z,15.20
2023-03-26T07:52:47.223Z,13.40
2023-03-26T07:55:17.095Z,15.90
2023-03-26T07:57:55.012Z,12.93
2023-03-26T08:00:27.756Z,15.33
2023-03-26T08:03:11.934Z,19.53
2023-03-26T08:05:45.996Z,13.63
2023-03-26T08:08:20.734Z,17.07
2023-03-26T08:11:03.206Z,17.10
2023-03-26T08:13:40.645Z,10.37
2023-03-26T08:16:13.656Z,14.20
2023-03-26T08:18:48.696Z,15.70
2023-03-26T08:21:20.521Z,13.10
2023-03-26T08:24:00.388Z,16.77
2023-03-26T08:26:36.241Z,17.57
2023-03-26T08:29:18.294Z,17.80
2023-03-26T08:31:48.956Z,13.30
2023-03-26T08:34:17.149Z,18.77
2023-03-26T08:36:44.836Z,13.80
2023-03-26T08:39:13.033Z,13.57
2023-03-26T08:42:05.963Z,15.10
2023-03-26T08:45:14.138Z,14.43
2023-03-26T08:48:24.308Z,19.27
2023-03-26T08:51:24.952Z,9.77
2023-03-26T08:54:30.733Z,10.57
2023-03-26T08:57:16.288Z,21.20
2023-03-26T09:00:05.898Z,15.67
2023-03-26T09:02:54.815Z,20.53
2023-03-26T09:05:55.951Z,17.53
2023-03-26T09:08:53.628Z,16.73
2023-03-26T09:11:54.284Z,8.13
2023-03-26T09:14:53.252Z,11.80
2023-03-26T09:17:45.476Z,15.00
2023-03-26T09:20:48.253Z,18.57
2023-03-26T09:24:00.638Z,10.27
2023-03-26T09:26:41.285Z,14.27
2023-03-26T09:29:51.773Z,14.80
2023-03-26T09:32:47.097Z,17.00
2023-03-26T09:35:29.963Z,16.60
2023-03-26T09:38:03.386Z,17.63
2023-03-26T09:40:39.606Z,13.00
2023-03-26T09:43:37.437Z,14.77
2023-03-26T09:46:18.970Z,17.13
2023-03-26T09:49:20.958Z,14.87
2023-03-26T09:51:59.751Z,13.40
2023-03-26T09:54:44.504Z,17.83
2023-03-26T09:57:25.212Z,13.47
2023-03-26T10:00:09.955Z,15.60
2023-03-26T10:03:15.589Z,9.20
2023-03-26T10:05:54.729Z,14.13
2023-03-26T10:08:55.459Z,18.63
2023-03-26T10:11:34.264Z,12.03
2023-03-26T10:14:10.481Z,12.20
2023-03-26T10:16:49.014Z,20.77
2023-03-26T10:19:40.775Z,13.73
2023-03-26T10:22:24.482Z,10.63
2023-03-26T10:25:23.647Z,16.60
2023-03-26T10:28:03.013Z,11.60
2023-03-26T10:30:45.901Z,11.00
2023-03-26T10:33:25.103Z,7.20
2023-03-26T10:36:03.201Z,11.73
2023-03-26T10:38:50.165Z,7.40
2023-03-26T10:41:22.430Z,11.60
2023-03-26T10:44:27.812Z,8.80
2023-03-26T10:47:14.623Z,8.83
2023-03-26T10:50:04.027Z,9.00
2023-03-26T10:52:38.754Z,9.10
2023-03-26T10:55:15.606Z,8.80
2023-03-26T10:57:46.771Z,13.13
2023-03-26T11:00:20.570Z,9.50
2023-03-26T11:03:05.234Z,12.53
2023-03-26T11:05:48.014Z,12.57
2023-03-26T11:08:30.980Z,18.00
2023-03-26T11:11:08.083Z,11.73
2023-03-26T11:13:47.626Z,15.50
2023-03-26T11:16:26.528Z,11.73
2023-03-26T11:18:59.776Z,8.30
2023-03-26T11:21:36.067Z,12.20
2023-03-26T11:24:40.556Z,12.43
2023-03-26T11:30:23.348Z,8.00
2023-03-26T11:32:54.288Z,10.70
2023-03-26T11:34:36.678Z,11.40
2023-03-26T11:35:40.903Z,8.77
2023-03-26T11:38:17.732Z,9.73
2023-03-26T11:40:50.921Z,6.90
2023-03-26T11:43:25.098Z,10.00
2023-03-26T11:45:53.952Z,11.17
2023-03-26T11:48:27.633Z,9.10
2023-03-26T11:50:59.816Z,10.30
2023-03-26T11:53:32.777Z,9.20
2023-03-26T11:56:04.402Z,7.40
2023-03-26T11:58:39.224Z,10.53
2023-03-26T12:01:15.367Z,6.93
2023-03-26T12:03:42.965Z,11.40
2023-03-26T12:06:25.573Z,4.93
2023-03-26T12:08:55.160Z,9.50
2023-03-26T12:11:27.176Z,9.10
2023-03-26T12:13:59.484Z,5.93
2023-03-26T12:16:28.086Z,7.17
2023-03-26T12:19:01.291Z,5.77
2023-03-26T12:21:28.932Z,9.63
2023-03-26T12:24:00.024Z,6.07
2023-03-26T12:26:35.787Z,6.73
2023-03-26T12:29:09.946Z,5.43
2023-03-26T12:32:04.113Z,5.90
2023-03-26T12:34:35.689Z,5.90
2023-03-26T12:37:05.647Z,5.23
2023-03-26T12:40:10.094Z,8.80
2023-03-26T12:44:44.475Z,11.10
2023-03-26T12:45:20.959Z,6.00
2023-03-26T12:48:01.145Z,4.33
2023-03-26T12:50:56.970Z,6.10
2023-03-26T12:53:53.921Z,7.90
2023-03-26T12:56:38.471Z,10.03
2023-03-26T12:59:34.103Z,8.23
2023-03-26T13:02:25.075Z,6.63
2023-03-26T13:05:06.751Z,5.37
2023-03-26T13:07:52.644Z,4.20
2023-03-26T13:10:35.089Z,6.13
2023-03-26T13:13:18.005Z,4.30
2023-03-26T13:15:52.494Z,6.30
2023-03-26T13:18:32.133Z,7.60
2023-03-26T13:21:09.188Z,7.97
2023-03-26T13:23:44.934Z,5.10
2023-03-26T13:26:22.715Z,3.97
2023-03-26T13:28:56.852Z,10.90
2023-03-26T13:31:30.328Z,6.40
2023-03-26T13:34:10.143Z,3.97
2023-03-26T13:36:48.049Z,8.07
2023-03-26T13:39:26.186Z,4.33
2023-03-26T13:42:10.056Z,4.33
2023-03-26T13:44:51.054Z,10.07
2023-03-26T13:47:23.172Z,6.17
2023-03-26T13:49:56.175Z,4.73
2023-03-26T13:52:27.939Z,4.47
2023-03-26T13:55:02.606Z,4.40
2023-03-26T13:57:35.907Z,3.90
2023-03-26T14:00:12.834Z,3.90
2023-03-26T14:02:42.319Z,5.10
2023-03-26T14:05:20.517Z,4.63
2023-03-26T14:07:52.382Z,3.30
2023-03-26T14:10:24.414Z,3.73
2023-03-26T14:12:57.707Z,4.03
2023-03-26T14:15:30.450Z,3.50
2023-03-26T14:18:07.651Z,4.63
2023-03-26T14:21:19.846Z,3.50
2023-03-26T14:24:02.945Z,5.57
2023-03-26T14:26:47.631Z,4.20
2023-03-26T14:29:30.763Z,4.00
2023-03-26T14:32:10.667Z,4.07
2023-03-26T14:34:51.188Z,3.97
2023-03-26T14:37:41.040Z,3.93
2023-03-26T14:40:29.352Z,3.73
2023-03-26T14:43:15.901Z,3.87
2023-03-26T14:46:08.470Z,3.97
2023-03-26T14:48:59.079Z,3.70
2023-03-26T14:51:50.911Z,3.33
2023-03-26T14:54:21.798Z,3.60
2023-03-26T14:57:17.448Z,3.37
2023-03-26T15:00:19.927Z,3.70
2023-03-26T15:03:34.584Z,6.40
2023-03-26T15:06:26.403Z,3.20
2023-03-26T15:09:27.055Z,3.57
2023-03-26T15:12:12.118Z,3.43
2023-03-26T15:15:11.053Z,3.40
2023-03-26T15:18:08.799Z,3.60
2023-03-26T15:21:18.509Z,3.80
2023-03-26T15:24:07.625Z,3.13
2023-03-26T15:27:11.651Z,3.30
2023-03-26T15:30:39.030Z,4.07
2023-03-26T15:33:49.652Z,3.67
2023-03-26T15:36:36.991Z,4.10
2023-03-26T15:39:38.076Z,3.83
2023-03-26T15:42:15.708Z,3.70
2023-03-26T15:44:54.521Z,3.93
2023-03-26T15:47:48.148Z,4.17
2023-03-26T15:50:36.560Z,3.13
2023-03-26T15:53:18.414Z,3.40
2023-03-26T15:56:02.979Z,3.40
2023-03-26T15:58:44.108Z,3.30
2023-03-26T16:01:23.088Z,3.80
2023-03-26T16:03:59.487Z,3.50
2023-03-26T16:06:33.993Z,5.87
2023-03-26T16:09:26.987Z,3.00
2023-03-26T16:11:56.846Z,3.10
2023-03-26T16:14:42.788Z,3.37
2023-03-26T16:17:14.724Z,3.50
2023-03-26T16:19:50.458Z,3.50
2023-03-26T16:22:42.877Z,3.43
2023-03-26T16:25:27.348Z,3.40
2023-03-26T16:28:30.265Z,3.80
2023-03-26T16:31:37.736Z,3.47
2023-03-26T16:34:43.091Z,3.37
2023-03-26T16:37:43.832Z,3.97
2023-03-26T16:40:51.540Z,2.90
2023-03-26T16:43:42.103Z,3.10
2023-03-26T16:46:20.377Z,3.07
2023-03-26T16:48:56.698Z,3.10
2023-03-26T16:51:34.197Z,3.57
2023-03-26T16:54:13.039Z,3.33
2023-03-26T16:56:49.918Z,3.10
2023-03-26T16:59:40.159Z,4.13
2023-03-26T17:02:17.845Z,3.13
2023-03-26T17:05:37.992Z,3.47
2023-03-26T17:08:16.906Z,3.33
2023-03-26T17:10:57.353Z,3.03
2023-03-26T17:13:34.987Z,2.83
2023-03-26T17:16:12.530Z,2.90
2023-03-26T17:18:49.315Z,2.90
2023-03-26T17:21:24.665Z,6.00
2023-03-26T17:24:05.298Z,5.47
2023-03-26T17:26:44.351Z,3.70
2023-03-26T17:29:24.814Z,3.20
2023-03-26T17:32:00.427Z,3.30
2023-03-26T17:35:07.461Z,3.60
2023-03-26T17:37:48.064Z,3.37
2023-03-26T17:40:44.574Z,3.23
2023-03-26T17:43:13.516Z,3.83
2023-03-26T17:45:45.764Z,3.87
2023-03-26T17:48:35.486Z,3.87
2023-03-26T17:51:12.222Z,4.13
2023-03-26T17:53:42.538Z,4.27
2023-03-26T17:56:17.527Z,6.00
2023-03-26T17:58:48.946Z,4.47
2023-03-26T18:01:28.809Z,8.83
2023-03-26T18:04:00.104Z,4.13
2023-03-26T18:06:47.715Z,4.60
2023-03-26T18:09:37.020Z,6.60
2023-03-26T18:12:31.369Z,4.23
2023-03-26T18:15:27.092Z,4.30
2023-03-26T18:18:03.209Z,5.87
2023-03-26T18:20:32.317Z,4.97
2023-03-26T18:22:59.922Z,4.97
2023-03-26T18:25:33.930Z,4.00
2023-03-26T18:28:02.973Z,3.90
2023-03-26T18:30:31.114Z,3.90
2023-03-26T18:33:03.411Z,4.00
2023-03-26T18:35:41.501Z,5.93
2023-03-26T18:38:14.806Z,6.33
2023-03-26T18:40:46.389Z,4.90
2023-03-26T18:43:25.381Z,5.60
2023-03-26T18:45:57.257Z,4.90
2023-03-26T18:48:26.595Z,4.33
2023-03-26T18:50:57.394Z,7.60
2023-03-26T18:53:29.690Z,4.37
2023-03-26T18:55:59.462Z,5.13
2023-03-26T18:58:29.968Z,6.67
2023-03-26T19:01:01.432Z,6.33
2023-03-26T19:03:32.467Z,10.43
2023-03-26T19:06:02.340Z,4.50
2023-03-26T19:08:31.018Z,7.43
2023-03-26T19:11:02.122Z,5.00
2023-03-26T19:13:29.866Z,6.80
2023-03-26T19:15:57.791Z,5.40
2023-03-26T19:18:28.834Z,4.83
2023-03-26T19:20:59.805Z,5.40
2023-03-26T19:23:32.246Z,5.90
2023-03-26T19:26:04.079Z,6.17
2023-03-26T19:28:34.617Z,5.73
2023-03-26T19:31:09.283Z,7.53
2023-03-26T19:33:39.314Z,4.67
2023-03-26T19:36:18.648Z,6.40
2023-03-26T19:38:51.837Z,5.30
2023-03-26T19:41:25.625Z,5.83
2023-03-26T19:43:56.111Z,5.03
2023-03-26T19:46:24.975Z,4.23
2023-03-26T19:48:54.520Z,5.70
2023-03-26T19:51:24.382Z,4.53
2023-03-26T19:53:58.127Z,5.20
2023-03-26T19:56:28.642Z,6.23
2023-03-26T19:58:57.220Z,7.77
2023-03-26T20:01:27.110Z,6.37
2023-03-26T20:03:57.730Z,4.93
2023-03-26T20:09:17.096Z,6.53
2023-03-26T20:11:47.045Z,5.20
2023-03-26T20:14:16.632Z,5.67
2023-03-26T20:16:45.465Z,6.07
2023-03-26T20:19:13.911Z,8.70
2023-03-26T20:21:42.224Z,7.10
2023-03-26T20:24:13.222Z,5.33
2023-03-26T20:26:40.908Z,5.83
2023-03-26T20:29:10.097Z,5.20
2023-03-26T20:31:38.425Z,12.73
2023-03-26T20:34:14.523Z,6.47
2023-03-26T20:36:42.214Z,6.13
2023-03-26T20:39:10.202Z,7.43
2023-03-26T20:41:42.730Z,5.60
2023-03-26T20:44:15.380Z,5.70
2023-03-26T20:46:44.055Z,5.10
2023-03-26T20:49:12.917Z,5.10
2023-03-26T20:51:41.856Z,7.80
2023-03-26T20:54:15.749Z,8.83
2023-03-26T20:56:43.419Z,7.83
2023-03-26T20:59:22.683Z,5.70
2023-03-26T21:01:51.253Z,8.27
2023-03-26T21:04:20.280Z,5.80
2023-03-26T21:06:48.683Z,5.93
2023-03-26T21:09:18.602Z,5.77
2023-03-26T21:11:52.860Z,8.37
2023-03-26T21:14:24.986Z,5.43
2023-03-26T21:16:53.248Z,5.20
2023-03-26T21:19:21.337Z,8.30
2023-03-26T21:21:57.528Z,5.33
2023-03-26T21:24:35.095Z,6.17
2023-03-26T21:27:11.208Z,5.93
2023-03-26T21:29:40.962Z,6.00
2023-03-26T21:32:11.109Z,5.57
2023-03-26T21:34:47.692Z,6.23
2023-03-26T21:37:20.291Z,6.03
2023-03-26T21:39:48.335Z,6.47
2023-03-26T21:42:16.574Z,12.07
2023-03-26T21:44:46.186Z,5.77
2023-03-26T21:47:14.849Z,5.80
2023-03-26T21:49:43.117Z,5.00
2023-03-26T21:52:15.129Z,5.93
2023-03-26T21:54:43.876Z,5.83
2023-03-26T21:57:26.618Z,5.90
2023-03-26T22:00:07.833Z,5.60
2023-03-26T22:02:42.335Z,5.50
2023-03-26T22:05:15.743Z,5.50
2023-03-26T22:07:53.706Z,4.60
2023-03-26T22:10:21.511Z,5.90
2023-03-26T22:12:49.375Z,6.63
2023-03-26T22:15:19.946Z,7.47
2023-03-26T22:17:53.725Z,5.27
2023-03-26T22:20:24.332Z,5.90
2023-03-26T22:22:53.345Z,6.20
2023-03-26T22:25:22.751Z,6.43
2023-03-26T22:27:51.836Z,6.20
2023-03-26T22:30:21.830Z,6.63
2023-03-26T22:32:50.513Z,8.13
2023-03-26T22:35:18.419Z,6.80
2023-03-26T22:37:47.383Z,6.63
2023-03-26T22:40:15.034Z,6.10
2023-03-26T22:42:42.932Z,6.57
2023-03-26T22:45:11.531Z,6.40
2023-03-26T22:47:40.909Z,6.40
2023-03-26T22:50:09.888Z,5.60
2023-03-26T22:52:40.638Z,5.93
2023-03-26T22:55:10.860Z,6.43
2023-03-26T22:57:38.552Z,6.23
2023-03-26T23:00:16.074Z,7.00
2023-03-26T23:02:46.330Z,6.90
2023-03-26T23:05:14.142Z,6.70
2023-03-26T23:07:42.556Z,7.70
2023-03-26T23:10:11.563Z,7.30
2023-03-26T23:12:39.327Z,7.90
2023-03-26T23:15:08.971Z,7.13
2023-03-26T23:17:38.635Z,6.93
2023-03-26T23:20:14.334Z,6.80
2023-03-26T23:22:42.976Z,7.30
2023-03-26T23:25:11.846Z,6.77
2023-03-26T23:27:40.144Z,6.90
2023-03-26T23:30:10.683Z,7.20
2023-03-26T23:32:38.571Z,7.30
2023-03-26T23:35:08.624Z,7.07
2023-03-26T23:37:36.548Z,8.00
2023-03-26T23:40:09.817Z,7.20
2023-03-26T23:42:37.590Z,6.60
2023-03-26T23:45:05.906Z,7.20
2023-03-26T23:47:34.871Z,7.60
2023-03-26T23:50:03.381Z,7.37
2023-03-26T23:52:32.597Z,12.30
2023-03-26T23:55:00.802Z,7.87
2023-03-26T23:57:28.990Z,8.37
2023-03-26T23:59:56.662Z,8.00
